Time;durP1;ratioP1;P1;durP2;ratioP2;P2;SDS_P1;SDS_P2;PMS_P1;PMS_P2;Temp;Humidity;BMP_temperature;BMP_pressure;BME280_temperature;BME280_humidity;BME280_pressure;Samples;Min_cycle;Max_cycle;Signal;HPM_P1;HPM_P2
2021/04/27 00:01:22;;;;;;;0.70;0.20;;;;;;;21.52;nan;101821.03;5054072;28;20036;-62
2021/04/27 00:03:47;;;;;;;0.80;0.20;;;;;;;21.54;nan;101821.72;5055502;28;20032;-60
2021/04/27 00:06:13;;;;;;;0.70;0.20;;;;;;;21.56;nan;101822.41;5055567;28;20053;-61
2021/04/27 00:08:40;;;;;;;0.40;0.10;;;;;;;21.53;nan;101826.34;5055567;28;20103;-60
2021/04/27 00:11:06;;;;;;;1.48;0.43;;;;;;;21.54;nan;101821.72;5055482;28;20387;-61
2021/04/27 00:13:31;;;;;;;1.02;0.45;;;;;;;21.55;nan;101823.44;5055229;28;20115;-60
2021/04/27 00:15:57;;;;;;;0.65;0.10;;;;;;;21.54;nan;101816.25;5055548;28;20028;-61
2021/04/27 00:18:22;;;;;;;1.25;0.38;;;;;;;21.54;nan;101819.84;5055179;28;20021;-60
2021/04/27 00:20:47;;;;;;;0.70;0.30;;;;;;;21.49;nan;101821.34;5055470;28;20056;-61
2021/04/27 00:23:13;;;;;;;0.40;0.20;;;;;;;21.53;nan;101820.00;5054987;28;20376;-60
2021/04/27 00:25:38;;;;;;;0.52;0.28;;;;;;;21.47;nan;101813.31;5055695;28;20032;-61
2021/04/27 00:28:04;;;;;;;0.88;0.20;;;;;;;21.53;nan;101809.06;5050146;28;20075;-60
2021/04/27 00:30:29;;;;;;;1.10;0.45;;;;;;;21.52;nan;101812.84;5035105;28;20025;-61
2021/04/27 00:32:55;;;;;;;0.15;0.00;;;;;;;21.48;nan;101812.28;5035244;28;20029;-60
2021/04/27 00:35:21;;;;;;;0.73;0.35;;;;;;;21.48;nan;101805.97;5033620;28;20105;-60
2021/04/27 00:37:46;;;;;;;1.17;0.30;;;;;;;21.47;nan;101798.78;5034796;28;20516;-60
2021/04/27 00:40:14;;;;;;;1.13;0.20;;;;;;;21.49;nan;101805.78;5034635;28;20032;-60
2021/04/27 00:42:45;;;;;;;0.70;0.10;;;;;;;21.51;nan;101811.13;5034943;28;20071;-61
2021/04/27 00:45:21;;;;;;;0.98;0.22;;;;;;;21.50;nan;101803.91;5034676;28;20048;-60
2021/04/27 00:47:46;;;;;;;1.23;0.30;;;;;;;21.52;nan;101808.22;5034907;28;20029;-62
2021/04/27 00:50:16;;;;;;;1.45;0.30;;;;;;;21.49;nan;101799.47;5069263;28;20031;-60
2021/04/27 00:52:43;;;;;;;0.45;0.20;;;;;;;21.51;nan;101802.91;5074755;28;20044;-61
2021/04/27 00:55:10;;;;;;;1.13;0.28;;;;;;;21.50;nan;101809.38;5074470;28;20020;-60
2021/04/27 00:57:36;;;;;;;1.25;0.30;;;;;;;21.50;nan;101801.19;5074560;28;20056;-61
2021/04/27 01:00:03;;;;;;;0.28;0.17;;;;;;;21.51;nan;101800.19;5074735;28;20508;-61
2021/04/27 01:02:28;;;;;;;0.38;0.20;;;;;;;21.51;nan;101794.72;5074288;28;20028;-61
2021/04/27 01:04:55;;;;;;;1.20;0.40;;;;;;;21.51;nan;101797.44;5074444;28;20070;-61
2021/04/27 01:07:27;;;;;;;1.23;0.30;;;;;;;21.49;nan;101794.00;5074122;28;20025;-61
2021/04/27 01:10:00;;;;;;;0.82;0.20;;;;;;;21.48;nan;101795.03;5074588;28;20029;-60
2021/04/27 01:12:31;;;;;;;0.50;0.30;;;;;;;21.46;nan;101797.06;5074330;28;20024;-61
2021/04/27 01:15:10;;;;;;;0.40;0.20;;;;;;;21.46;nan;101794.34;5074484;28;20033;-60
2021/04/27 01:17:38;;;;;;;0.20;0.20;;;;;;;21.49;nan;101788.53;5074046;28;20017;-61
2021/04/27 01:20:13;;;;;;;0.38;0.20;;;;;;;21.52;nan;101782.75;5074300;28;20035;-60
2021/04/27 01:22:53;;;;;;;1.33;0.20;;;;;;;21.53;nan;101787.19;5074206;28;20032;-61
2021/04/27 01:25:29;;;;;;;0.38;0.28;;;;;;;21.50;nan;101787.50;5073643;28;20364;-60
2021/04/27 01:27:55;;;;;;;0.68;0.20;;;;;;;21.49;nan;101785.78;5069972;28;20524;-61
2021/04/27 01:30:21;;;;;;;0.50;0.30;;;;;;;21.50;nan;101776.56;5053817;28;20124;-61
2021/04/27 01:32:47;;;;;;;1.05;0.40;;;;;;;21.47;nan;101772.28;5053969;28;20116;-60
2021/04/27 01:35:13;;;;;;;0.22;0.10;;;;;;;21.50;nan;101779.28;5053873;28;20028;-62
2021/04/27 01:37:38;;;;;;;0.80;0.30;;;;;;;21.54;nan;101783.41;5053799;28;20087;-61
2021/04/27 01:40:04;;;;;;;0.85;0.30;;;;;;;21.52;nan;101774.53;5053934;28;20067;-61
2021/04/27 01:42:29;;;;;;;0.93;0.25;;;;;;;21.52;nan;101769.06;5053635;28;20017;-60
2021/04/27 01:44:56;;;;;;;0.82;0.30;;;;;;;21.51;nan;101767.34;5053951;28;20503;-61
2021/04/27 01:47:22;;;;;;;0.73;0.30;;;;;;;21.51;nan;101767.34;5053388;28;20464;-60
2021/04/27 01:49:48;;;;;;;0.82;0.20;;;;;;;21.50;nan;101771.09;5052964;28;20024;-60
2021/04/27 01:52:14;;;;;;;0.70;0.30;;;;;;;21.50;nan;101766.50;5053248;28;20377;-60
2021/04/27 01:54:39;;;;;;;1.02;0.30;;;;;;;21.51;nan;101764.63;5053464;28;20032;-61
2021/04/27 01:57:05;;;;;;;1.60;0.40;;;;;;;21.50;nan;101771.09;5053447;28;20400;-60
2021/04/27 01:59:30;;;;;;;0.77;0.30;;;;;;;21.53;nan;101765.28;5053146;28;20095;-61
2021/04/27 02:01:56;;;;;;;0.65;0.20;;;;;;;21.45;nan;101751.59;5053481;28;20100;-61
2021/04/27 02:04:23;;;;;;;0.88;0.13;;;;;;;21.49;nan;101758.44;5053042;28;20480;-61
2021/04/27 02:06:49;;;;;;;0.65;0.20;;;;;;;21.49;nan;101752.97;5053250;28;20053;-61
2021/04/27 02:09:15;;;;;;;0.82;0.10;;;;;;;21.49;nan;101753.81;5053135;28;20477;-60
2021/04/27 02:11:44;;;;;;;0.38;0.13;;;;;;;21.50;nan;101746.47;5053464;28;20024;-60
2021/04/27 02:14:12;;;;;;;0.95;0.30;;;;;;;21.49;nan;101755.69;5053124;28;20021;-61
2021/04/27 02:16:43;;;;;;;0.82;0.28;;;;;;;21.48;nan;101751.25;5053060;28;20029;-60
2021/04/27 02:19:09;;;;;;;0.75;0.15;;;;;;;21.44;nan;101752.63;5053172;28;20048;-61
2021/04/27 02:21:36;;;;;;;0.63;0.30;;;;;;;21.50;nan;101755.56;5052951;28;20062;-61
2021/04/27 02:24:02;;;;;;;1.13;0.22;;;;;;;21.43;nan;101745.44;5052968;28;20056;-61
2021/04/27 02:26:29;;;;;;;3.00;0.20;;;;;;;21.49;nan;101750.22;5052720;28;20064;-60
2021/04/27 02:28:55;;;;;;;1.38;0.30;;;;;;;21.49;nan;101753.81;5040677;28;20052;-61
2021/04/27 02:31:21;;;;;;;1.00;0.20;;;;;;;21.48;nan;101759.44;5031655;28;20373;-60
2021/04/27 02:33:47;;;;;;;1.20;0.30;;;;;;;21.47;nan;101755.88;5032971;28;20037;-60
2021/04/27 02:36:12;;;;;;;1.02;0.32;;;;;;;21.48;nan;101762.19;5032877;28;20029;-60
2021/04/27 02:38:37;;;;;;;0.30;0.20;;;;;;;21.47;nan;101760.47;5032907;28;20487;-61
2021/04/27 02:41:03;;;;;;;1.70;0.50;;;;;;;21.45;nan;101751.59;5031703;28;20021;-62
2021/04/27 02:43:29;;;;;;;1.42;0.40;;;;;;;21.47;nan;101764.06;5032451;28;20532;-60
2021/04/27 02:45:55;;;;;;;1.27;0.30;;;;;;;21.47;nan;101760.47;5032780;28;20025;-61
2021/04/27 02:48:23;;;;;;;0.57;0.20;;;;;;;21.45;nan;101754.31;5032476;28;20021;-60
2021/04/27 02:50:53;;;;;;;0.30;0.10;;;;;;;21.47;nan;101760.47;5032823;28;20124;-61
2021/04/27 02:53:19;;;;;;;1.52;0.22;;;;;;;21.45;nan;101754.31;5032435;28;20037;-60
2021/04/27 02:55:44;;;;;;;1.35;0.38;;;;;;;21.45;nan;101752.44;5032502;28;20064;-61
2021/04/27 02:58:11;;;;;;;1.05;0.20;;;;;;;21.43;nan;101753.66;5032552;28;20461;-61
2021/04/27 03:00:38;;;;;;;0.55;0.32;;;;;;;21.43;nan;101757.25;5031269;28;20380;-60
2021/04/27 03:03:03;;;;;;;1.27;0.40;;;;;;;21.43;nan;101753.66;5032325;28;20072;-62
2021/04/27 03:05:29;;;;;;;1.25;0.30;;;;;;;21.45;nan;101762.53;5032107;28;20053;-60
2021/04/27 03:07:54;;;;;;;1.48;0.30;;;;;;;21.44;nan;101766.31;5032582;28;20025;-62
2021/04/27 03:10:20;;;;;;;1.50;0.30;;;;;;;21.44;nan;101761.69;5032386;28;20072;-61
2021/04/27 03:12:45;;;;;;;1.55;0.30;;;;;;;21.42;nan;101751.94;5032451;28;20380;-61
2021/04/27 03:15:11;;;;;;;0.98;0.25;;;;;;;21.44;nan;101738.94;5032377;28;20036;-61
2021/04/27 03:17:37;;;;;;;1.02;0.20;;;;;;;21.45;nan;101743.38;5032330;28;20048;-61
2021/04/27 03:20:07;;;;;;;1.15;0.22;;;;;;;21.44;nan;101747.16;5032472;28;20037;-61
2021/04/27 03:22:33;;;;;;;0.40;0.25;;;;;;;21.45;nan;101735.19;5032317;28;20109;-62
2021/04/27 03:24:58;;;;;;;0.47;0.25;;;;;;;21.47;nan;101755.00;5032278;28;20109;-62
2021/04/27 03:27:24;;;;;;;1.52;0.40;;;;;;;21.45;nan;101743.38;5031987;28;20346;-61
2021/04/27 03:29:49;;;;;;;1.77;0.38;;;;;;;21.45;nan;101736.03;5052163;28;20190;-62
2021/04/27 03:32:15;;;;;;;1.67;0.22;;;;;;;21.44;nan;101744.41;5052051;28;20067;-61
2021/04/27 03:34:40;;;;;;;0.38;0.25;;;;;;;21.47;nan;101744.06;5052447;28;20070;-62
2021/04/27 03:37:06;;;;;;;1.05;0.32;;;;;;;21.43;nan;101743.56;5052230;28;20137;-61
2021/04/27 03:39:31;;;;;;;0.70;0.10;;;;;;;21.47;nan;101744.06;5051954;28;20100;-62
2021/04/27 03:41:56;;;;;;;0.68;0.22;;;;;;;21.48;nan;101740.31;5052254;28;20374;-61
2021/04/27 03:44:22;;;;;;;1.40;0.32;;;;;;;21.48;nan;101734.84;5051894;28;20377;-61
2021/04/27 03:46:47;;;;;;;1.48;0.22;;;;;;;21.47;nan;101744.06;5052041;28;20473;-60
2021/04/27 03:49:12;;;;;;;0.85;0.35;;;;;;;21.48;nan;101740.31;5051937;28;20053;-62
2021/04/27 03:51:38;;;;;;;0.80;0.45;;;;;;;21.47;nan;101744.06;5051866;28;20443;-61
2021/04/27 03:54:04;;;;;;;1.50;0.38;;;;;;;21.45;nan;101743.38;5052068;28;20456;-62
2021/04/27 03:56:30;;;;;;;1.05;0.70;;;;;;;21.47;nan;101744.06;5051700;28;20051;-61
2021/04/27 03:58:55;;;;;;;0.95;0.60;;;;;;;21.46;nan;101753.31;5052064;28;20086;-61
2021/04/27 04:01:20;;;;;;;2.10;0.50;;;;;;;21.44;nan;101744.41;5051650;28;20063;-61
2021/04/27 04:03:46;;;;;;;0.50;0.30;;;;;;;22.98;nan;101744.06;5051994;28;20433;-61
2021/04/27 04:06:11;;;;;;;1.10;0.10;;;;;;;23.34;nan;101746.22;5051578;28;20401;-61
2021/04/27 04:08:36;;;;;;;1.20;0.20;;;;;;;23.52;nan;101733.06;5051741;28;20032;-61
2021/04/27 04:11:03;;;;;;;0.50;0.20;;;;;;;23.77;nan;101741.13;5051964;28;20125;-61
2021/04/27 04:13:28;;;;;;;0.47;0.15;;;;;;;23.89;nan;101735.00;5052205;28;20036;-61
2021/04/27 04:15:54;;;;;;;1.08;0.10;;;;;;;24.13;nan;101744.00;5055590;28;20024;-61
2021/04/27 04:18:21;;;;;;;1.63;0.17;;;;;;;24.24;nan;101747.16;5055250;28;20025;-61
2021/04/27 04:20:47;;;;;;;0.43;0.20;;;;;;;23.61;nan;101737.47;5055489;28;20078;-61
2021/04/27 04:23:12;;;;;;;0.82;0.25;;;;;;;23.09;nan;101718.97;5055277;28;20099;-61
2021/04/27 04:25:38;;;;;;;0.98;0.20;;;;;;;22.89;nan;101739.69;5055015;28;20036;-60
2021/04/27 04:28:03;;;;;;;0.75;0.22;;;;;;;22.77;nan;101741.91;5049904;28;20024;-61
2021/04/27 04:30:29;;;;;;;0.75;0.20;;;;;;;22.62;nan;101734.63;5035611;28;20065;-62
2021/04/27 04:32:54;;;;;;;1.10;0.20;;;;;;;22.63;nan;101741.81;5035274;28;20029;-61
2021/04/27 04:35:22;;;;;;;0.40;0.10;;;;;;;22.52;nan;101752.16;5034902;28;20575;-60
2021/04/27 04:37:47;;;;;;;0.57;0.20;;;;;;;22.52;nan;101752.16;5035241;28;20029;-61
2021/04/27 04:40:14;;;;;;;1.23;0.30;;;;;;;22.54;nan;101753.88;5034993;28;20017;-61
2021/04/27 04:42:40;;;;;;;0.30;0.20;;;;;;;22.42;nan;101745.16;5035101;28;20029;-61
2021/04/27 04:45:08;;;;;;;0.20;0.17;;;;;;;22.48;nan;101756.25;5034846;28;20075;-61
2021/04/27 04:47:33;;;;;;;0.77;0.20;;;;;;;22.45;nan;101747.53;5034875;28;20622;-61
2021/04/27 04:49:59;;;;;;;0.50;0.20;;;;;;;22.45;nan;101745.66;5066057;28;20055;-60
2021/04/27 04:52:24;;;;;;;0.50;0.10;;;;;;;22.38;nan;101743.81;5074523;28;20051;-60
2021/04/27 04:54:50;;;;;;;2.17;0.40;;;;;;;22.45;nan;101750.28;5074818;28;20479;-60
2021/04/27 04:57:15;;;;;;;0.30;0.20;;;;;;;22.46;nan;101747.38;5074330;28;20052;-60
2021/04/27 04:59:40;;;;;;;0.77;0.20;;;;;;;22.45;nan;101751.13;5074704;28;20379;-61
2021/04/27 05:02:06;;;;;;;0.38;0.17;;;;;;;22.45;nan;101745.66;5074682;28;20392;-60
2021/04/27 05:04:31;;;;;;;1.20;0.10;;;;;;;22.44;nan;101743.94;5074500;28;20032;-61
2021/04/27 05:07:02;;;;;;;0.10;0.10;;;;;;;22.52;nan;101752.16;5074455;28;20032;-60
2021/04/27 05:09:27;;;;;;;0.60;0.20;;;;;;;22.47;nan;101743.59;5074200;28;20024;-61
2021/04/27 05:11:54;;;;;;;0.85;0.17;;;;;;;22.55;nan;101739.97;5074460;28;20035;-60
2021/04/27 05:14:19;;;;;;;0.35;0.10;;;;;;;22.65;nan;101742.50;5074291;28;20032;-60
2021/04/27 05:16:45;;;;;;;0.32;0.20;;;;;;;22.63;nan;101742.66;5074435;28;20070;-62
2021/04/27 05:19:10;;;;;;;0.22;0.10;;;;;;;22.59;nan;101751.44;5073906;28;20026;-61
2021/04/27 05:21:35;;;;;;;1.27;0.20;;;;;;;22.51;nan;101755.94;5074515;28;20341;-60
2021/04/27 05:24:01;;;;;;;0.45;0.10;;;;;;;22.55;nan;101745.47;5074099;28;20055;-61
2021/04/27 05:26:26;;;;;;;0.68;0.10;;;;;;;22.49;nan;101746.16;5073719;28;20028;-62
2021/04/27 05:28:51;;;;;;;0.68;0.17;;;;;;;22.52;nan;101743.94;5062213;28;20031;-61
2021/04/27 05:31:16;;;;;;;0.50;0.20;;;;;;;22.50;nan;101747.84;5054111;28;20368;-60
2021/04/27 05:33:42;;;;;;;0.28;0.10;;;;;;;22.56;nan;101749.06;5054082;28;20071;-61
2021/04/27 05:36:07;;;;;;;0.70;0.20;;;;;;;22.52;nan;101743.94;5054001;28;20021;-61
2021/04/27 05:38:33;;;;;;;0.77;0.20;;;;;;;22.46;nan;101747.38;5053821;28;20514;-60
2021/04/27 05:40:58;;;;;;;0.10;0.05;;;;;;;22.48;nan;101742.56;5053983;28;20156;-61
2021/04/27 05:43:23;;;;;;;0.28;0.13;;;;;;;22.48;nan;101745.28;5053574;28;20017;-60
2021/04/27 05:45:48;;;;;;;0.55;0.10;;;;;;;22.42;nan;101751.50;5053685;28;20108;-61
2021/04/27 05:48:14;;;;;;;1.35;0.10;;;;;;;22.48;nan;101748.03;5053833;28;20354;-61
2021/04/27 05:50:39;;;;;;;0.32;0.10;;;;;;;22.47;nan;101738.09;5053652;28;20101;-60
2021/04/27 05:53:05;;;;;;;0.45;0.13;;;;;;;22.58;nan;101738.75;5053634;28;20061;-61
2021/04/27 05:55:30;;;;;;;0.90;0.30;;;;;;;22.54;nan;101735.53;5053202;28;20072;-60
2021/04/27 05:57:56;;;;;;;0.43;0.20;;;;;;;22.55;nan;101739.13;5053625;28;20025;-61
2021/04/27 06:00:22;;;;;;;1.23;0.20;;;;;;;22.54;nan;101737.41;5053265;28;20503;-60
2021/04/27 06:02:47;;;;;;;1.15;0.30;;;;;;;22.51;nan;101744.13;5053539;28;20048;-62
2021/04/27 06:05:13;;;;;;;1.23;0.20;;;;;;;22.50;nan;101743.22;5052785;28;20025;-60
2021/04/27 06:07:39;;;;;;;1.15;0.40;;;;;;;22.48;nan;101739.81;5053228;28;20419;-61
2021/04/27 06:10:05;;;;;;;1.13;0.15;;;;;;;22.40;nan;101736.28;5053309;28;20079;-61
2021/04/27 06:12:31;;;;;;;0.30;0.10;;;;;;;22.40;nan;101731.63;5053081;28;20407;-61
2021/04/27 06:14:56;;;;;;;0.52;0.30;;;;;;;22.45;nan;101740.19;5053332;28;20100;-61
2021/04/27 06:17:21;;;;;;;0.20;0.10;;;;;;;22.46;nan;101739.16;5052988;28;20029;-60
2021/04/27 06:19:47;;;;;;;0.50;0.30;;;;;;;22.36;nan;101724.81;5052680;28;20104;-61
2021/04/27 06:22:12;;;;;;;0.52;0.30;;;;;;;22.42;nan;101729.56;5052417;28;20025;-60
2021/04/27 06:24:37;;;;;;;0.90;0.15;;;;;;;22.44;nan;101724.78;5051802;28;20036;-61
2021/04/27 06:27:03;;;;;;;0.35;0.13;;;;;;;22.43;nan;101719.47;5051081;28;20032;-61
2021/04/27 06:29:28;;;;;;;0.20;0.10;;;;;;;22.47;nan;101732.63;5051723;28;20029;-60
2021/04/27 06:31:53;;;;;;;0.40;0.10;;;;;;;22.44;nan;101738.47;5052019;28;20111;-62
2021/04/27 06:34:19;;;;;;;0.90;0.30;;;;;;;22.48;nan;101745.28;5051773;28;20167;-60
2021/04/27 06:36:44;;;;;;;0.32;0.17;;;;;;;22.49;nan;101741.53;5052058;28;20044;-61
2021/04/27 06:39:09;;;;;;;1.02;0.20;;;;;;;22.44;nan;101732.13;5052104;28;20021;-60
2021/04/27 06:41:35;;;;;;;1.00;0.20;;;;;;;22.44;nan;101735.72;5051827;28;20492;-61
2021/04/27 06:44:02;;;;;;;0.70;0.13;;;;;;;22.43;nan;101742.25;5052632;28;20067;-60
2021/04/27 06:46:28;;;;;;;1.08;0.20;;;;;;;22.42;nan;101735.06;5051653;28;20126;-61
2021/04/27 06:48:54;;;;;;;1.40;0.20;;;;;;;22.44;nan;101738.47;5051682;28;20048;-60
2021/04/27 06:51:19;;;;;;;1.40;0.20;;;;;;;22.37;nan;101737.47;5050209;28;20053;-60
2021/04/27 06:53:46;;;;;;;0.65;0.35;;;;;;;22.44;nan;101738.47;5050037;28;20395;-60
2021/04/27 06:56:12;;;;;;;0.40;0.20;;;;;;;22.39;nan;101735.41;5049645;28;20043;-59
2021/04/27 06:58:38;;;;;;;2.20;0.20;;;;;;;22.43;nan;101742.25;5050916;28;20044;-60
2021/04/27 07:01:04;;;;;;;0.40;0.30;;;;;;;22.45;nan;101734.69;5050016;28;20102;-60
2021/04/27 07:03:30;;;;;;;0.73;0.17;;;;;;;22.47;nan;101732.63;5050294;28;20028;-60
2021/04/27 07:05:56;;;;;;;1.77;0.40;;;;;;;22.43;nan;101725.81;5050654;28;20017;-59
2021/04/27 07:08:21;;;;;;;0.20;0.10;;;;;;;22.47;nan;101721.66;5050910;28;20081;-59
2021/04/27 07:10:46;;;;;;;0.80;0.32;;;;;;;22.42;nan;101726.84;5050295;28;20112;-59
2021/04/27 07:13:12;;;;;;;2.13;0.38;;;;;;;22.38;nan;101728.22;5050477;28;20078;-60
2021/04/27 07:15:37;;;;;;;1.00;0.20;;;;;;;22.40;nan;101720.69;5052000;28;20023;-59
2021/04/27 07:18:02;;;;;;;0.88;0.30;;;;;;;22.40;nan;101719.81;5052291;28;20079;-59
2021/04/27 07:20:28;;;;;;;0.55;0.30;;;;;;;22.40;nan;101714.34;5051526;28;20100;-60
2021/04/27 07:22:53;;;;;;;1.13;0.25;;;;;;;22.42;nan;101715.88;5052002;28;20499;-59
2021/04/27 07:25:18;;;;;;;0.75;0.40;;;;;;;22.41;nan;101727.03;5051763;28;20029;-60
2021/04/27 07:27:45;;;;;;;0.45;0.30;;;;;;;22.39;nan;101729.09;5051536;28;20033;-59
2021/04/27 07:30:12;;;;;;;0.22;0.13;;;;;;;22.37;nan;101721.03;5051822;28;20063;-60
2021/04/27 07:32:38;;;;;;;0.52;0.10;;;;;;;22.42;nan;101724.09;5051831;28;20056;-59
2021/04/27 07:35:05;;;;;;;0.43;0.10;;;;;;;22.39;nan;101709.91;5051372;28;20062;-59
2021/04/27 07:37:30;;;;;;;0.30;0.20;;;;;;;22.43;nan;101720.31;5049708;28;20044;-59
2021/04/27 07:39:55;;;;;;;0.93;0.30;;;;;;;22.46;nan;101719.09;5050607;28;20033;-59
2021/04/27 07:42:21;;;;;;;0.80;0.20;;;;;;;22.41;nan;101719.66;5051337;28;20021;-59
2021/04/27 07:44:46;;;;;;;1.10;0.30;;;;;;;22.43;nan;101712.09;5052141;28;20100;-59
2021/04/27 07:47:12;;;;;;;0.57;0.20;;;;;;;22.48;nan;101711.56;5051594;28;20052;-59
2021/04/27 07:49:37;;;;;;;0.80;0.20;;;;;;;22.46;nan;101719.97;5055018;28;20526;-59
2021/04/27 07:52:02;;;;;;;0.70;0.20;;;;;;;22.48;nan;101717.91;5055218;28;20414;-60
2021/04/27 07:54:28;;;;;;;0.47;0.25;;;;;;;22.52;nan;101718.41;5054374;28;20056;-59
2021/04/27 07:56:53;;;;;;;0.60;0.20;;;;;;;22.45;nan;101714.66;5079093;22;20403;-59
2021/04/27 07:59:18;;;;;;;0.68;0.30;;;;;;;22.41;nan;101705.94;5072181;28;20074;-59
2021/04/27 08:01:44;;;;;;;0.40;0.22;;;;;;;22.51;nan;101703.88;5073687;28;20022;-59
2021/04/27 08:04:09;;;;;;;0.93;0.10;;;;;;;22.56;nan;101705.22;5073834;28;20455;-60
2021/04/27 08:06:35;;;;;;;0.65;0.20;;;;;;;22.50;nan;101707.59;5069825;28;20063;-59
2021/04/27 08:09:01;;;;;;;0.77;0.25;;;;;;;22.46;nan;101703.53;5065028;28;20067;-60
2021/04/27 08:11:27;;;;;;;1.05;0.40;;;;;;;22.45;nan;101703.69;5059211;28;20043;-59
2021/04/27 08:13:52;;;;;;;0.75;0.20;;;;;;;22.48;nan;101700.59;5059679;28;20025;-59
2021/04/27 08:16:18;;;;;;;0.47;0.20;;;;;;;22.45;nan;101695.47;5064831;28;20430;-59
2021/04/27 08:18:44;;;;;;;0.60;0.30;;;;;;;22.48;nan;101706.94;5067503;28;20025;-59
2021/04/27 08:21:11;;;;;;;0.32;0.10;;;;;;;22.45;nan;101701.81;5066516;28;20376;-59
2021/04/27 08:23:37;;;;;;;0.47;0.22;;;;;;;22.43;nan;101703.03;5066276;28;20025;-59
2021/04/27 08:26:07;;;;;;;0.20;0.10;;;;;;;22.41;nan;101699.63;5063725;28;20027;-59
2021/04/27 08:28:33;;;;;;;0.50;0.30;;;;;;;22.38;nan;101689.88;5067494;28;20040;-59
2021/04/27 08:30:58;;;;;;;0.75;0.22;;;;;;;22.46;nan;101698.03;5066877;28;20032;-60
2021/04/27 08:33:24;;;;;;;0.35;0.10;;;;;;;22.36;nan;101696.56;5060698;28;20476;-59
2021/04/27 08:35:50;;;;;;;0.50;0.10;;;;;;;22.44;nan;101691.88;5069922;28;20024;-59
2021/04/27 08:38:15;;;;;;;1.00;0.25;;;;;;;22.42;nan;101696.69;5069695;28;20017;-59
2021/04/27 08:40:41;;;;;;;1.15;0.20;;;;;;;22.45;nan;101696.34;5053050;28;20443;-60
2021/04/27 08:43:07;;;;;;;0.10;0.05;;;;;;;22.42;nan;101693.09;5060941;28;20028;-59
2021/04/27 08:45:34;;;;;;;0.60;0.20;;;;;;;22.43;nan;101692.94;5057424;28;20036;-60
2021/04/27 08:47:59;;;;;;;0.50;0.30;;;;;;;22.44;nan;101650.78;5057661;28;20067;-59
2021/04/27 08:50:25;;;;;;;0.15;0.10;;;;;;;22.49;nan;101685.88;5058095;28;20032;-59
2021/04/27 08:52:51;;;;;;;1.08;0.30;;;;;;;22.46;nan;101687.09;5066124;28;20020;-59
2021/04/27 08:55:17;;;;;;;0.20;0.10;;;;;;;22.49;nan;101680.38;5078395;28;20044;-59
2021/04/27 08:57:43;;;;;;;1.42;0.28;;;;;;;22.45;nan;101673.56;5072769;28;20484;-59
2021/04/27 09:00:14;;;;;;;0.75;0.30;;;;;;;22.43;nan;101681.97;5071913;28;20750;-59
2021/04/27 09:02:43;;;;;;;0.63;0.28;;;;;;;22.35;nan;101673.81;5068269;28;20071;-59
2021/04/27 09:05:26;;;;;;;1.02;0.30;;;;;;;22.41;nan;101683.19;5064237;28;20024;-59
2021/04/27 09:07:53;;;;;;;0.33;0.10;;;;;;;22.47;nan;101680.56;5065762;28;20078;-60
2021/04/27 09:10:24;;;;;;;0.88;0.30;;;;;;;22.48;nan;101674.06;5062044;28;20816;-59
2021/04/27 09:12:55;;;;;;;0.60;0.17;;;;;;;22.48;nan;101674.06;5068485;28;20028;-59
2021/04/27 09:15:27;;;;;;;0.88;0.20;;;;;;;22.45;nan;101679.91;5056188;28;20407;-59
2021/04/27 09:17:52;;;;;;;0.75;0.15;;;;;;;22.42;nan;101672.03;5054898;28;20029;-59
2021/04/27 09:20:18;;;;;;;0.00;0.00;;;;;;;22.46;nan;101670.66;5072188;28;20078;-59
2021/04/27 09:22:43;;;;;;;0.20;0.13;;;;;;;22.50;nan;101671.97;5072027;28;20056;-60
2021/04/27 09:25:10;;;;;;;0.30;0.10;;;;;;;22.46;nan;101676.13;5072056;28;20028;-59
2021/04/27 09:27:42;;;;;;;0.20;0.03;;;;;;;22.45;nan;101671.69;5072915;28;20028;-59
2021/04/27 09:30:15;;;;;;;1.17;0.10;;;;;;;22.40;nan;101668.63;5074076;28;20055;-59
2021/04/27 09:32:51;;;;;;;0.47;0.17;;;;;;;22.43;nan;101671.00;5072988;28;20399;-59
2021/04/27 09:35:45;;;;;;;0.65;0.30;;;;;;;22.44;nan;101667.22;5064237;28;20016;-59
2021/04/27 09:38:18;;;;;;;0.20;0.10;;;;;;;22.45;nan;101657.97;5059923;28;20427;-58
2021/04/27 09:40:52;;;;;;;0.82;0.20;;;;;;;22.55;nan;101656.91;5069221;28;20132;-59
2021/04/27 09:43:18;;;;;;;0.50;0.10;;;;;;;22.51;nan;101660.03;5071791;28;20017;-59
2021/04/27 09:45:46;;;;;;;0.35;0.10;;;;;;;22.56;nan;101650.41;5059833;28;20040;-59
2021/04/27 09:48:12;;;;;;;0.65;0.30;;;;;;;22.58;nan;101653.81;5054888;28;20029;-59
2021/04/27 09:50:39;;;;;;;0.40;0.10;;;;;;;22.47;nan;101650.44;5065255;28;20414;-59
2021/04/27 09:53:05;;;;;;;0.35;0.15;;;;;;;22.48;nan;101649.41;5071622;28;20134;-59
2021/04/27 09:55:32;;;;;;;1.38;0.38;;;;;;;22.54;nan;101644.25;5072031;28;20087;-59
2021/04/27 09:57:58;;;;;;;0.20;0.20;;;;;;;22.47;nan;101644.94;5073927;28;20028;-59
2021/04/27 10:00:38;;;;;;;1.02;0.10;;;;;;;22.54;nan;101641.50;5072792;28;20928;-59
2021/04/27 10:03:04;;;;;;;1.10;0.20;;;;;;;22.52;nan;101641.69;5073286;28;20032;-60
2021/04/27 10:05:30;;;;;;;0.40;0.20;;;;;;;22.62;nan;101644.19;5072152;28;20521;-59
2021/04/27 10:07:58;;;;;;;0.75;0.20;;;;;;;22.50;nan;101638.25;5073339;28;20024;-59
2021/04/27 10:10:25;;;;;;;0.55;0.20;;;;;;;22.48;nan;101635.69;5072543;28;20119;-59
2021/04/27 10:12:51;;;;;;;0.30;0.10;;;;;;;22.56;nan;101631.22;5071966;28;20369;-59
2021/04/27 10:15:17;;;;;;;0.60;0.20;;;;;;;22.51;nan;101635.34;5072508;28;20037;-59
2021/04/27 10:17:43;;;;;;;0.30;0.20;;;;;;;22.47;nan;101623.03;5072503;28;20124;-59
2021/04/27 10:20:13;;;;;;;0.50;0.20;;;;;;;22.47;nan;101628.50;5072704;28;20364;-59
2021/04/27 10:22:41;;;;;;;0.43;0.15;;;;;;;22.39;nan;101620.34;5072729;28;20439;-59
2021/04/27 10:25:11;;;;;;;0.10;0.10;;;;;;;22.49;nan;101620.97;5072686;28;20029;-59
2021/04/27 10:27:37;;;;;;;0.40;0.10;;;;;;;22.43;nan;101610.72;5072803;28;20388;-59
2021/04/27 10:30:14;;;;;;;0.50;0.20;;;;;;;22.46;nan;101621.31;5072799;28;20472;-59
2021/04/27 10:32:39;;;;;;;0.32;0.10;;;;;;;22.47;nan;101617.56;5072866;28;20029;-59
2021/04/27 10:35:06;;;;;;;0.17;0.03;;;;;;;22.47;nan;101606.59;5072957;28;20081;-59
2021/04/27 10:38:08;;;;;;;0.75;0.10;;;;;;;22.46;nan;101615.84;5072547;28;20044;-59
2021/04/27 10:40:42;;;;;;;0.63;0.17;;;;;;;22.46;nan;101610.38;5072267;28;20028;-59
2021/04/27 10:43:28;;;;;;;;;;;;;;;22.50;nan;101611.69;5072854;28;20104;-59
2021/04/27 10:45:54;;;;;;;;;;;;;;;22.48;nan;101608.28;5071693;28;19919;-59
2021/04/27 10:48:30;;;;;;;1.05;0.30;;;;;;;22.45;nan;101608.66;5071577;28;20329;-59
2021/04/27 10:50:57;;;;;;;0.88;0.17;;;;;;;22.47;nan;101614.81;5067819;28;20040;-59
2021/04/27 10:53:36;;;;;;;0.85;0.20;;;;;;;22.47;nan;101612.06;5059250;28;20050;-59
2021/04/27 10:56:04;;;;;;;0.70;0.38;;;;;;;22.43;nan;101616.22;5051775;28;20056;-59
2021/04/27 10:59:03;;;;;;;0.52;0.15;;;;;;;22.47;nan;101611.22;5063397;28;20503;-59
2021/04/27 11:01:29;;;;;;;0.30;0.10;;;;;;;22.43;nan;101609.88;5016188;28;20050;-59
2021/04/27 11:03:56;;;;;;;0.82;0.40;;;;;;;22.47;nan;101603.00;5016031;28;20104;-59
2021/04/27 11:06:22;;;;;;;0.47;0.20;;;;;;;22.48;nan;101602.81;5013608;28;20053;-59
2021/04/27 11:08:52;;;;;;;0.82;0.25;;;;;;;22.48;nan;101608.28;5016039;28;20033;-60
2021/04/27 11:11:32;;;;;;;0.85;0.17;;;;;;;22.47;nan;101595.63;5028359;28;20580;-59
2021/04/27 11:14:17;;;;;;;0.45;0.20;;;;;;;22.50;nan;101598.00;5025566;28;20040;-60
2021/04/27 11:16:48;;;;;;;0.40;0.15;;;;;;;22.46;nan;101591.19;5027899;28;20029;-59
2021/04/27 11:19:18;;;;;;;0.20;0.10;;;;;;;22.42;nan;101592.59;5025113;28;20052;-59
2021/04/27 11:21:45;;;;;;;0.38;0.10;;;;;;;22.47;nan;101586.56;5021280;28;20022;-59
2021/04/27 11:24:39;;;;;;;1.15;0.20;;;;;;;22.45;nan;101586.75;5041800;28;20040;-59
2021/04/27 11:27:19;;;;;;;0.90;0.22;;;;;;;22.46;nan;101580.22;5033291;28;20025;-59
2021/04/27 11:30:17;;;;;;;0.68;0.13;;;;;;;22.50;nan;101578.81;5030438;28;20456;-60
2021/04/27 11:32:45;;;;;;;0.20;0.10;;;;;;;22.50;nan;101581.56;4974727;28;20086;-60
2021/04/27 11:35:15;;;;;;;1.17;0.47;;;;;;;22.51;nan;101575.06;4974860;28;20061;-59
2021/04/27 11:38:12;;;;;;;0.75;0.30;;;;;;;22.48;nan;101564.44;4983168;28;20038;-60
2021/04/27 11:40:41;;;;;;;0.55;0.20;;;;;;;22.49;nan;101576.25;4954621;29;20043;-59
2021/04/27 11:43:11;;;;;;;0.28;0.25;;;;;;;22.58;nan;101566.13;4954889;29;20039;-59